createdAt,value
2019-06-26T18:19:40.066Z,6.97
2019-06-26T18:22:10.625Z,6.40
2019-06-26T18:24:41.185Z,6.67
2019-06-26T18:27:11.619Z,6.35
2019-06-26T18:29:42.103Z,6.67
2019-06-26T18:32:12.585Z,6.78
2019-06-26T18:34:43.013Z,6.40
2019-06-26T18:37:13.483Z,6.00
2019-06-26T18:39:45.041Z,6.28
2019-06-26T18:42:15.609Z,6.92
2019-06-26T18:44:46.093Z,6.78
2019-06-26T18:47:17.599Z,6.50
2019-06-26T18:49:48.184Z,6.40
2019-06-26T18:52:18.637Z,7.95
2019-06-26T18:54:49.080Z,6.50
2019-06-26T18:57:19.521Z,7.00
2019-06-26T19:00:01.475Z,6.95
2019-06-26T19:02:33.168Z,6.90
2019-06-26T19:05:03.661Z,6.85
2019-06-26T19:07:34.191Z,7.20
2019-06-26T19:10:06.325Z,7.15
2019-06-26T19:12:38.461Z,7.72
2019-06-26T19:15:09.220Z,6.97
2019-06-26T19:17:42.462Z,7.50
2019-06-26T19:20:12.666Z,7.15
2019-06-26T19:22:43.239Z,7.22
2019-06-26T19:25:13.734Z,6.95
2019-06-26T19:27:44.330Z,7.35
2019-06-26T19:30:15.120Z,7.08
2019-06-26T19:32:45.604Z,7.70
2019-06-26T19:35:19.993Z,6.80
2019-06-26T19:37:48.277Z,7.47
2019-06-26T19:40:18.999Z,8.55
2019-06-26T19:42:49.452Z,9.08
2019-06-26T19:45:20.263Z,7.42
2019-06-26T19:47:50.774Z,10.95
2019-06-26T19:50:23.595Z,7.55
2019-06-26T19:52:53.542Z,8.95
2019-06-26T19:55:24.008Z,8.50
2019-06-26T19:57:54.940Z,8.58
2019-06-26T20:00:25.455Z,7.58
2019-06-26T20:02:56.221Z,8.73
2019-06-26T20:05:28.503Z,7.92
2019-06-26T20:07:59.069Z,8.83
2019-06-26T20:10:30.573Z,9.58
2019-06-26T20:13:01.018Z,8.93
2019-06-26T20:15:31.537Z,8.88
2019-06-26T20:18:04.295Z,8.83
2019-06-26T20:20:34.163Z,8.73
2019-06-26T20:23:05.880Z,7.97
2019-06-26T20:25:37.448Z,8.18
2019-06-26T20:28:07.906Z,9.00
2019-06-26T20:30:38.363Z,9.18
2019-06-26T20:33:08.958Z,8.05
2019-06-26T20:35:39.496Z,8.33
2019-06-26T20:38:10.976Z,7.75
2019-06-26T20:40:45.636Z,9.43
2019-06-26T20:43:14.342Z,8.53
2019-06-26T20:45:44.913Z,7.75
2019-06-26T20:48:15.394Z,8.03
2019-06-26T20:50:45.918Z,7.78
2019-06-26T20:53:16.725Z,7.83
2019-06-26T20:55:48.298Z,8.23
2019-06-26T20:58:18.806Z,7.65
2019-06-26T21:00:49.283Z,7.33
2019-06-26T21:03:21.337Z,7.90
2019-06-26T21:05:51.860Z,7.03
2019-06-26T21:08:22.496Z,7.87
2019-06-26T21:10:53.046Z,7.87
2019-06-26T21:13:23.637Z,7.58
2019-06-26T21:15:54.140Z,7.47
2019-06-26T21:18:24.646Z,8.10
2019-06-26T21:20:55.149Z,8.00
2019-06-26T21:23:25.703Z,8.20
2019-06-26T21:25:56.398Z,8.50
2019-06-26T21:28:27.050Z,7.72
2019-06-26T21:30:57.623Z,8.13
2019-06-26T21:33:28.845Z,7.50
2019-06-26T21:35:59.382Z,7.67
2019-06-26T21:38:30.176Z,7.47
2019-06-26T21:41:00.744Z,7.80
2019-06-26T21:43:31.395Z,7.28
2019-06-26T21:46:01.943Z,7.25
2019-06-26T21:48:33.613Z,7.97
2019-06-26T21:51:04.122Z,7.65
2019-06-26T21:53:34.652Z,8.13
2019-06-26T21:56:23.718Z,7.20
2019-06-26T21:59:12.431Z,7.45
2019-06-26T22:02:01.044Z,7.60
2019-06-26T22:04:49.823Z,8.23
2019-06-26T22:07:39.295Z,7.80
2019-06-26T22:10:12.319Z,7.62
2019-06-26T22:12:43.644Z,7.58
2019-06-26T22:15:14.990Z,7.53
2019-06-26T22:17:45.800Z,7.30
2019-06-26T22:20:17.317Z,7.85
2019-06-26T22:22:47.959Z,7.42
2019-06-26T22:25:18.965Z,7.22
2019-06-26T22:27:49.486Z,7.75
2019-06-26T22:30:20.446Z,6.85
2019-06-26T22:32:50.988Z,7.55
2019-06-26T22:35:21.858Z,7.28
2019-06-26T22:37:52.564Z,6.83
2019-06-26T22:40:23.417Z,6.58
2019-06-26T22:42:54.202Z,6.62
2019-06-26T22:45:26.378Z,7.33
2019-06-26T22:47:56.958Z,7.22
2019-06-26T22:50:28.076Z,7.35
2019-06-26T22:52:58.627Z,6.55
2019-06-26T22:55:29.314Z,6.78
2019-06-26T22:57:59.908Z,6.60
2019-06-26T23:00:30.997Z,6.58
2019-06-26T23:03:01.533Z,6.30
2019-06-26T23:05:32.396Z,6.50
2019-06-26T23:08:05.616Z,6.28
2019-06-26T23:10:36.269Z,6.70
2019-06-26T23:13:09.613Z,7.10
2019-06-26T23:15:39.198Z,6.45
2019-06-26T23:18:09.793Z,7.33
2019-06-26T23:20:40.585Z,6.85
2019-06-26T23:23:11.123Z,7.00
2019-06-26T23:25:42.652Z,7.00
2019-06-26T23:28:13.224Z,7.03
2019-06-26T23:30:43.814Z,6.67
2019-06-26T23:33:14.418Z,6.72
2019-06-26T23:35:44.951Z,7.20
2019-06-26T23:38:15.421Z,6.92
2019-06-26T23:40:45.872Z,6.55
2019-06-26T23:43:16.375Z,7.22
2019-06-26T23:45:46.862Z,6.97
2019-06-26T23:48:17.684Z,6.85
2019-06-26T23:50:48.185Z,7.03
2019-06-26T23:53:19.754Z,6.95
2019-06-26T23:55:50.270Z,6.50
2019-06-26T23:58:20.808Z,6.60
